Portada
METAR-TAF:

METAR-TAF

Aeropuertos :

Baréin, Bahréin

Aeropuerto Internacional de Baréin

latitud: 26-16N, longitud: 050-39E, altitud: 2 m

Observación

El informe se hizo hace 15 minutos, a las 02:00 UTC
Viento 9 kt del noroeste
Temperatura 27°C
Humedad 66%
Presión 1008 hPa
Visibilidad 10 km o más
sin nubes por debajo de 1500 m y sin presencia de cumulonimbus.

METAR: OBBI 260200Z 32009KT CAVOK 27/20 Q1008 NOSIG

Hora: 05:15 (02:15 UTC)

Pronóstico

El informe se hizo hace 3 horas y 15 minutos, a las 23:00 UTC
Pronóstico válido del 26 a las 00 UTC al 27 a las 06 UTC
Viento 13 kt del norte-noroeste con ráfagas de 23 kt
Visibilidad 10 km o más
sin nubes por debajo de 1500 m y sin presencia de cumulonimbus.
Evolucionando progresivamente
del 26 a las 16 UTC al 26 a las 18 UTC
Viento 13 kt del noroeste

TAF: OBBI 252300Z 2600/2706 33013G23KT CAVOK BECMG 2616/2618 32013KT

Observaciones y pronósticos meteorológicos de más de 4000 aeropuertos (mensajes METAR y TAF).

Los puntos amarillos y rojos representan las estaciones disponibles.

Ponga el ratón en el punto deseado para ver el nombre de la estación.

Haga clic para ver las observaciones y los pronósticos meteorológicos.

Para cambiar el mapa : haga clic en los botones verdes con una cruz de color negro para hacer un zoom, en el botón verde con un guión para alejar o en las flechas verdes para mapas adyacentes.


METAR-TAF: